createdAt,value
2018-08-20T00:01:55.308Z,98619.13
2018-08-20T00:04:23.692Z,98616.32
2018-08-20T00:06:56.099Z,98617.45
2018-08-20T00:09:34.969Z,98618.66
2018-08-20T00:12:03.963Z,98617.97
2018-08-20T00:14:32.894Z,98609.77
2018-08-20T00:17:01.742Z,98620.87
2018-08-20T00:19:30.134Z,98611.93
2018-08-20T00:21:58.584Z,98610.66
2018-08-20T00:24:26.944Z,98614.89
2018-08-20T00:26:56.790Z,98616.91
2018-08-20T00:29:25.216Z,98617.02
2018-08-20T00:31:53.559Z,98617.57
2018-08-20T00:34:21.936Z,98619.51
2018-08-20T00:36:50.517Z,98622.58
2018-08-20T00:39:19.646Z,98611.09
2018-08-20T00:41:47.995Z,98618.39
2018-08-20T00:44:17.458Z,98617.36
2018-08-20T00:46:46.485Z,98617.70
2018-08-20T00:49:16.207Z,98621.20
2018-08-20T00:51:44.755Z,98619.20
2018-08-20T00:54:19.868Z,98620.55
2018-08-20T00:56:48.221Z,98622.28
2018-08-20T00:59:16.575Z,98618.97
2018-08-20T01:01:44.865Z,98619.50
2018-08-20T01:04:13.176Z,98612.53
2018-08-20T01:06:41.508Z,98616.28
2018-08-20T01:09:10.043Z,98619.36
2018-08-20T01:11:38.682Z,98621.15
2018-08-20T01:14:07.104Z,98621.11
2018-08-20T01:16:35.425Z,98620.30
2018-08-20T01:19:03.825Z,98615.63
2018-08-20T01:21:32.181Z,98610.02
2018-08-20T01:24:00.537Z,98607.83
2018-08-20T01:26:29.112Z,98612.50
2018-08-20T01:28:57.476Z,98612.83
2018-08-20T01:31:25.978Z,98604.97
2018-08-20T01:33:54.287Z,98609.57
2018-08-20T01:36:22.750Z,98607.33
2018-08-20T01:38:51.067Z,98610.59
2018-08-20T01:41:19.407Z,98609.01
2018-08-20T01:43:47.766Z,98609.37
2018-08-20T01:46:16.611Z,98610.47
2018-08-20T01:48:45.025Z,98612.38
2018-08-20T01:51:13.338Z,98613.95
2018-08-20T01:53:41.853Z,98612.30
2018-08-20T01:56:10.488Z,98616.42
2018-08-20T01:58:38.838Z,98606.19
2018-08-20T02:01:07.229Z,98605.70
2018-08-20T02:03:35.633Z,98599.45
2018-08-20T02:06:04.044Z,98602.98
2018-08-20T02:08:32.444Z,98609.46
2018-08-20T02:11:00.769Z,98610.59
2018-08-20T02:13:29.131Z,98613.72
2018-08-20T02:15:57.488Z,98612.55
2018-08-20T02:18:25.866Z,98607.63
2018-08-20T02:20:54.251Z,98614.98
2018-08-20T02:23:22.629Z,98613.00
2018-08-20T02:25:51.025Z,98608.53
2018-08-20T02:28:19.412Z,98608.75
2018-08-20T02:30:47.742Z,98603.52
2018-08-20T02:33:16.090Z,98603.41
2018-08-20T02:35:44.460Z,98602.92
2018-08-20T02:38:12.876Z,98606.21
2018-08-20T02:40:41.216Z,98610.78
2018-08-20T02:43:09.703Z,98601.20
2018-08-20T02:45:38.050Z,98608.59
2018-08-20T02:48:07.889Z,98606.94
2018-08-20T02:50:36.680Z,98604.54
2018-08-20T02:53:05.265Z,98597.34
2018-08-20T02:55:33.613Z,98606.13
2018-08-20T02:58:02.077Z,98603.19
2018-08-20T03:00:30.453Z,98608.53
2018-08-20T03:03:04.713Z,98609.97
2018-08-20T03:05:33.833Z,98606.98
2018-08-20T03:08:03.110Z,98602.91
2018-08-20T03:10:31.485Z,98609.23
2018-08-20T03:12:59.854Z,98603.12
2018-08-20T03:15:28.335Z,98611.97
2018-08-20T03:17:56.667Z,98606.77
2018-08-20T03:20:24.989Z,98610.17
2018-08-20T03:22:53.412Z,98606.97
2018-08-20T03:25:21.815Z,98608.41
2018-08-20T03:27:50.307Z,98607.50
2018-08-20T03:30:18.670Z,98609.86
2018-08-20T03:32:47.022Z,98611.00
2018-08-20T03:35:15.384Z,98607.14
2018-08-20T03:37:44.284Z,98601.64
2018-08-20T03:40:13.503Z,98614.44
2018-08-20T03:42:42.362Z,98607.41
2018-08-20T03:45:11.144Z,98610.64
2018-08-20T03:47:39.561Z,98616.05
2018-08-20T03:50:11.532Z,98625.80
2018-08-20T03:52:39.931Z,98627.48
2018-08-20T03:55:08.361Z,98628.46
2018-08-20T03:57:37.019Z,98631.10
2018-08-20T04:00:06.278Z,98627.02
2018-08-20T04:02:34.658Z,98631.41
2018-08-20T04:05:03.080Z,98626.35
2018-08-20T04:07:31.355Z,98622.78
2018-08-20T04:09:59.903Z,98622.97
2018-08-20T04:12:28.244Z,98616.28
2018-08-20T04:14:58.113Z,98618.43
2018-08-20T04:17:26.470Z,98615.02
2018-08-20T04:19:54.817Z,98612.69
2018-08-20T04:22:23.144Z,98612.02
2018-08-20T04:24:51.518Z,98615.68
2018-08-20T04:27:19.892Z,98608.29
2018-08-20T04:29:48.209Z,98616.70
2018-08-20T04:32:16.587Z,98613.10
2018-08-20T04:34:44.898Z,98604.32
2018-08-20T04:37:13.263Z,98610.98
2018-08-20T04:39:41.574Z,98612.38
2018-08-20T04:42:10.009Z,98606.13
2018-08-20T04:44:38.298Z,98610.75
2018-08-20T04:47:06.629Z,98611.67
2018-08-20T04:49:35.569Z,98610.33
2018-08-20T04:52:03.927Z,98610.27
2018-08-20T04:54:32.295Z,98615.27
2018-08-20T04:57:00.649Z,98609.75
2018-08-20T04:59:29.102Z,98610.11
2018-08-20T05:01:57.437Z,98607.14
2018-08-20T05:04:25.785Z,98606.30
2018-08-20T05:06:54.140Z,98611.16
2018-08-20T05:09:22.462Z,98610.09
2018-08-20T05:11:50.971Z,98609.41
2018-08-20T05:14:19.759Z,98610.91
2018-08-20T05:16:48.112Z,98610.88
2018-08-20T05:19:16.509Z,98607.28
2018-08-20T05:21:44.886Z,98612.01
2018-08-20T05:24:13.274Z,98613.89
2018-08-20T05:26:41.732Z,98622.02
2018-08-20T05:29:10.048Z,98613.94
2018-08-20T05:31:38.412Z,98619.27
2018-08-20T05:34:06.889Z,98611.85
2018-08-20T05:36:35.473Z,98621.96
2018-08-20T05:39:04.117Z,98629.36
2018-08-20T05:41:32.531Z,98638.49
2018-08-20T05:44:00.955Z,98628.23
2018-08-20T05:46:29.414Z,98619.84
2018-08-20T05:48:57.821Z,98623.36
2018-08-20T05:51:26.164Z,98637.98
2018-08-20T05:53:54.481Z,98638.52
2018-08-20T05:56:23.028Z,98636.11
2018-08-20T05:58:51.405Z,98641.16
2018-08-20T06:01:19.997Z,98646.23
2018-08-20T06:03:48.343Z,98645.53
2018-08-20T06:06:16.692Z,98640.45
2018-08-20T06:08:45.106Z,98640.90
2018-08-20T06:11:13.494Z,98643.19
2018-08-20T06:13:41.797Z,98646.73
2018-08-20T06:16:10.134Z,98640.06
2018-08-20T06:18:38.474Z,98643.47
2018-08-20T06:21:07.056Z,98648.70
2018-08-20T06:23:35.443Z,98650.85
2018-08-20T06:26:03.872Z,98656.48
2018-08-20T06:28:32.208Z,98648.49
2018-08-20T06:31:00.536Z,98654.16
2018-08-20T06:33:28.965Z,98654.84
2018-08-20T06:35:57.328Z,98659.52
2018-08-20T06:38:25.653Z,98659.86
2018-08-20T06:40:54.055Z,98657.23
2018-08-20T06:43:22.403Z,98659.83
2018-08-20T06:45:50.965Z,98663.53
2018-08-20T06:48:19.350Z,98665.56
2018-08-20T06:50:47.710Z,98659.31
2018-08-20T06:53:16.214Z,98662.39
2018-08-20T06:55:44.659Z,98661.09
2018-08-20T06:58:13.073Z,98662.17
2018-08-20T07:00:41.551Z,98661.12
2018-08-20T07:03:09.921Z,98660.55
2018-08-20T07:05:38.297Z,98656.05
2018-08-20T07:08:07.406Z,98649.22
2018-08-20T07:10:41.136Z,98658.91
2018-08-20T07:13:20.744Z,98657.98
2018-08-20T07:15:49.273Z,98660.02
2018-08-20T07:18:17.605Z,98658.84
2018-08-20T07:20:45.983Z,98663.86
2018-08-20T07:23:14.441Z,98664.73
2018-08-20T07:25:42.758Z,98675.36
2018-08-20T07:28:11.115Z,98672.47
2018-08-20T07:30:39.506Z,98672.54
2018-08-20T07:33:07.953Z,98675.33
2018-08-20T07:35:36.324Z,98664.92
2018-08-20T07:38:04.720Z,98672.59
2018-08-20T07:40:33.246Z,98674.84
2018-08-20T07:43:01.610Z,98680.05
2018-08-20T07:45:30.122Z,98680.67
2018-08-20T07:47:58.527Z,98683.44
2018-08-20T07:50:26.939Z,98679.20
2018-08-20T07:52:55.245Z,98681.90
2018-08-20T07:55:23.674Z,98684.76
2018-08-20T07:57:52.038Z,98681.24
2018-08-20T08:00:20.567Z,98678.85
2018-08-20T08:02:49.082Z,98679.36
2018-08-20T08:05:17.479Z,98681.48
2018-08-20T08:07:45.838Z,98682.91
2018-08-20T08:10:16.349Z,98685.28
2018-08-20T08:12:44.951Z,98681.27
2018-08-20T08:15:15.069Z,98682.92
2018-08-20T08:17:44.625Z,98687.19
2018-08-20T08:20:14.138Z,98684.31
2018-08-20T08:22:42.838Z,98681.39
2018-08-20T08:25:17.572Z,98685.39
2018-08-20T08:27:45.945Z,98677.91
2018-08-20T08:30:16.905Z,98679.92
2018-08-20T08:32:45.757Z,98687.52
2018-08-20T08:35:14.659Z,98686.27
2018-08-20T08:37:43.085Z,98676.81
2018-08-20T08:40:12.889Z,98682.46
2018-08-20T08:42:41.191Z,98679.03
2018-08-20T08:45:13.307Z,98671.79
2018-08-20T08:47:41.968Z,98680.74
2018-08-20T08:50:10.355Z,98666.97
2018-08-20T08:52:38.671Z,98672.70
2018-08-20T08:55:07.975Z,98672.84
2018-08-20T08:57:36.842Z,98674.86
2018-08-20T09:00:09.699Z,98678.81
2018-08-20T09:02:38.069Z,98676.02
2018-08-20T09:05:08.108Z,98681.81
2018-08-20T09:07:36.377Z,98676.92
2018-08-20T09:10:05.354Z,98672.72
2018-08-20T09:12:33.838Z,98676.58
2018-08-20T09:15:02.219Z,98675.99
2018-08-20T09:17:30.687Z,98673.06
2018-08-20T09:19:59.123Z,98674.22
2018-08-20T09:22:27.538Z,98678.31
2018-08-20T09:24:55.941Z,98683.45
2018-08-20T09:27:24.297Z,98688.05
2018-08-20T09:29:52.681Z,98692.92
2018-08-20T09:32:21.151Z,98691.70
2018-08-20T09:34:49.531Z,98679.35
2018-08-20T09:37:17.924Z,98686.55
2018-08-20T09:39:46.317Z,98676.61
2018-08-20T09:42:14.634Z,98672.40
2018-08-20T09:44:42.995Z,98672.49
2018-08-20T09:47:11.365Z,98679.89
2018-08-20T09:49:39.747Z,98668.80
2018-08-20T09:52:08.176Z,98673.54
2018-08-20T09:54:36.549Z,98665.28
2018-08-20T09:57:04.941Z,98664.77
2018-08-20T09:59:33.281Z,98665.02
2018-08-20T10:02:01.597Z,98671.00
2018-08-20T10:04:29.978Z,98660.88
2018-08-20T10:06:58.355Z,98671.11
2018-08-20T10:09:26.857Z,98669.09
2018-08-20T10:11:55.154Z,98666.11
2018-08-20T10:14:23.506Z,98669.09
2018-08-20T10:16:51.955Z,98669.45
2018-08-20T10:19:20.300Z,98667.33
2018-08-20T10:21:48.788Z,98665.33
2018-08-20T10:24:17.193Z,98663.27
2018-08-20T10:26:45.671Z,98660.16
2018-08-20T10:29:14.001Z,98659.16
2018-08-20T10:31:42.306Z,98659.56
2018-08-20T10:34:11.417Z,98647.58
2018-08-20T10:36:39.850Z,98646.55
2018-08-20T10:39:10.016Z,98651.43
2018-08-20T10:41:38.432Z,98652.00
2018-08-20T10:44:06.771Z,98644.85
2018-08-20T10:46:35.833Z,98652.40
2018-08-20T10:49:04.259Z,98645.72
2018-08-20T10:51:32.605Z,98647.55
2018-08-20T10:54:00.966Z,98638.16
2018-08-20T10:56:29.593Z,98639.06
2018-08-20T10:58:57.981Z,98650.92
2018-08-20T11:01:26.350Z,98642.80
2018-08-20T11:03:57.280Z,98639.42
2018-08-20T11:06:26.647Z,98634.27
2018-08-20T11:08:55.005Z,98633.59
2018-08-20T11:11:23.369Z,98632.97
2018-08-20T11:13:52.520Z,98626.52
2018-08-20T11:16:20.905Z,98631.28
2018-08-20T11:18:49.475Z,98631.27
2018-08-20T11:21:17.782Z,98624.95
2018-08-20T11:23:46.231Z,98632.46
2018-08-20T11:26:14.634Z,98629.47
2018-08-20T11:28:42.985Z,98634.55
2018-08-20T11:31:11.357Z,98629.93
2018-08-20T11:33:39.702Z,98630.51
2018-08-20T11:36:08.114Z,98622.83
2018-08-20T11:38:36.404Z,98613.56
2018-08-20T11:41:04.765Z,98617.00
2018-08-20T11:43:33.144Z,98615.81
2018-08-20T11:46:01.467Z,98613.84
2018-08-20T11:48:29.868Z,98606.08
2018-08-20T11:50:58.263Z,98605.06
2018-08-20T11:53:26.720Z,98603.18
2018-08-20T11:55:55.073Z,98593.30
2018-08-20T11:58:23.417Z,98587.66
2018-08-20T12:00:51.780Z,98586.27
2018-08-20T12:03:20.199Z,98595.14
2018-08-20T12:05:48.521Z,98584.23
2018-08-20T12:08:16.852Z,98588.64
2018-08-20T12:10:45.214Z,98585.45
2018-08-20T12:13:13.515Z,98580.38
2018-08-20T12:15:41.908Z,98575.74
2018-08-20T12:18:10.284Z,98573.09
2018-08-20T12:20:38.622Z,98580.06
2018-08-20T12:23:06.960Z,98572.81
2018-08-20T12:25:35.289Z,98577.95
2018-08-20T12:28:03.784Z,98578.89
2018-08-20T12:30:32.103Z,98569.52
2018-08-20T12:33:00.447Z,98565.41
2018-08-20T12:35:28.810Z,98564.89
2018-08-20T12:37:57.166Z,98563.54
2018-08-20T12:40:25.501Z,98562.91
2018-08-20T12:42:53.758Z,98552.19
2018-08-20T12:45:22.101Z,98555.11
2018-08-20T12:47:50.519Z,98554.44
2018-08-20T12:50:18.921Z,98556.08
2018-08-20T12:52:47.221Z,98555.08
2018-08-20T12:55:15.645Z,98555.14
2018-08-20T12:57:43.991Z,98543.34
2018-08-20T13:00:12.343Z,98547.60
2018-08-20T13:02:40.694Z,98549.88
2018-08-20T13:05:09.082Z,98549.54
2018-08-20T13:07:37.638Z,98540.02
2018-08-20T13:10:07.147Z,98545.77
2018-08-20T13:12:35.532Z,98539.54
2018-08-20T13:15:03.935Z,98542.81
2018-08-20T13:17:32.273Z,98537.48
2018-08-20T13:20:01.255Z,98528.80
2018-08-20T13:22:29.738Z,98533.16
2018-08-20T13:24:58.093Z,98523.98
2018-08-20T13:27:26.541Z,98524.30
2018-08-20T13:29:54.891Z,98524.41
2018-08-20T13:32:23.964Z,98518.84
2018-08-20T13:34:52.364Z,98520.91
2018-08-20T13:37:20.714Z,98522.98
2018-08-20T13:39:49.033Z,98526.52
2018-08-20T13:42:17.560Z,98515.65
2018-08-20T13:44:45.902Z,98504.94
2018-08-20T13:47:14.212Z,98513.92
2018-08-20T13:49:42.624Z,98507.57
2018-08-20T13:52:11.238Z,98518.11
2018-08-20T13:54:39.600Z,98513.20
2018-08-20T13:57:08.021Z,98508.95
2018-08-20T13:59:36.385Z,98503.93
2018-08-20T14:02:04.796Z,98500.39
2018-08-20T14:04:33.249Z,98509.28
2018-08-20T14:07:01.614Z,98497.06
2018-08-20T14:09:29.930Z,98487.66
2018-08-20T14:11:58.275Z,98491.51
2018-08-20T14:14:26.647Z,98484.19
2018-08-20T14:16:55.230Z,98490.20
2018-08-20T14:19:23.507Z,98485.03
2018-08-20T14:21:51.816Z,98489.34
2018-08-20T14:24:20.136Z,98489.41
2018-08-20T14:26:48.485Z,98493.31
2018-08-20T14:29:16.833Z,98487.00
2018-08-20T14:31:45.221Z,98487.84
2018-08-20T14:34:13.569Z,98491.89
2018-08-20T14:36:41.964Z,98483.78
2018-08-20T14:39:10.223Z,98485.91
2018-08-20T14:41:38.598Z,98486.89
2018-08-20T14:44:06.923Z,98490.78
2018-08-20T14:46:35.806Z,98479.47
2018-08-20T14:49:04.206Z,98473.78
2018-08-20T14:51:32.556Z,98474.89
2018-08-20T14:54:00.903Z,98479.08
2018-08-20T14:56:29.271Z,98474.66
2018-08-20T14:58:57.671Z,98471.05
2018-08-20T15:01:25.969Z,98475.25
2018-08-20T15:03:54.291Z,98480.20
2018-08-20T15:06:22.826Z,98474.02
2018-08-20T15:08:51.170Z,98469.13
2018-08-20T15:11:19.646Z,98474.59
2018-08-20T15:13:47.963Z,98468.63
2018-08-20T15:16:16.442Z,98467.68
2018-08-20T15:18:45.742Z,98464.27
2018-08-20T15:21:14.139Z,98468.27
2018-08-20T15:23:42.468Z,98461.89
2018-08-20T15:26:10.827Z,98465.03
2018-08-20T15:28:39.218Z,98466.25
2018-08-20T15:31:07.650Z,98455.23
2018-08-20T15:33:36.190Z,98462.39
2018-08-20T15:36:04.893Z,98461.42
2018-08-20T15:38:33.313Z,98463.39
2018-08-20T15:41:01.634Z,98461.91
2018-08-20T15:43:30.041Z,98458.45
2018-08-20T15:45:58.373Z,98460.55
2018-08-20T15:48:26.786Z,98461.30
2018-08-20T15:50:55.171Z,98462.58
2018-08-20T15:53:23.472Z,98462.89
2018-08-20T15:55:51.890Z,98465.90
2018-08-20T15:58:20.175Z,98473.11
2018-08-20T16:00:48.554Z,98463.53
2018-08-20T16:03:16.893Z,98461.94
2018-08-20T16:05:45.272Z,98459.94
2018-08-20T16:08:13.591Z,98459.53
2018-08-20T16:10:41.971Z,98456.70
2018-08-20T16:13:10.388Z,98461.75
2018-08-20T16:15:38.717Z,98463.69
2018-08-20T16:18:07.084Z,98462.24
2018-08-20T16:20:35.432Z,98458.52
2018-08-20T16:23:03.759Z,98456.70
2018-08-20T16:25:32.363Z,98455.08
2018-08-20T16:28:00.733Z,98463.39
2018-08-20T16:30:29.097Z,98458.05
2018-08-20T16:32:57.420Z,98454.92
2018-08-20T16:35:25.806Z,98452.16
2018-08-20T16:37:54.168Z,98455.92
2018-08-20T16:40:22.574Z,98459.23
2018-08-20T16:42:50.976Z,98454.25
2018-08-20T16:45:19.354Z,98455.88
2018-08-20T16:47:47.776Z,98451.94
2018-08-20T16:50:16.135Z,98448.14
2018-08-20T16:52:44.617Z,98441.61
2018-08-20T16:55:12.948Z,98444.42
2018-08-20T16:57:41.345Z,98439.31
2018-08-20T17:00:11.986Z,98446.61
2018-08-20T17:02:41.497Z,98454.52
2018-08-20T17:05:11.378Z,98450.89
2018-08-20T17:07:39.936Z,98443.69
2018-08-20T17:10:09.669Z,98443.03
2018-08-20T17:12:38.074Z,98441.33
2018-08-20T17:15:11.690Z,98439.26
2018-08-20T17:17:41.307Z,98441.18
2018-08-20T17:20:11.527Z,98448.11
2018-08-20T17:22:40.110Z,98439.97
2018-08-20T17:25:08.985Z,98442.27
2018-08-20T17:27:37.370Z,98443.64
2018-08-20T17:30:07.881Z,98439.48
2018-08-20T17:32:36.227Z,98455.73
2018-08-20T17:35:06.911Z,98448.34
2018-08-20T17:37:35.458Z,98454.84
2018-08-20T17:40:07.184Z,98462.73
2018-08-20T17:42:35.544Z,98460.02
2018-08-20T17:45:04.140Z,98463.55
2018-08-20T17:47:32.739Z,98459.14
2018-08-20T17:50:01.465Z,98463.74
2018-08-20T17:52:35.122Z,98465.24
2018-08-20T17:55:05.073Z,98462.84
2018-08-20T17:57:33.663Z,98468.32
2018-08-20T18:00:43.825Z,98467.80
2018-08-20T18:03:20.286Z,98466.94
2018-08-20T18:06:08.889Z,98468.63
2018-08-20T18:08:37.315Z,98467.85
2018-08-20T18:11:12.473Z,98470.60
2018-08-20T18:13:47.014Z,98474.91
2018-08-20T18:16:17.009Z,98470.83
2018-08-20T18:18:46.927Z,98473.34
2018-08-20T18:21:15.314Z,98478.64
2018-08-20T18:23:43.653Z,98476.02
2018-08-20T18:26:11.986Z,98478.27
2018-08-20T18:28:46.474Z,98475.30
2018-08-20T18:31:21.710Z,98480.87
2018-08-20T18:33:50.069Z,98482.42
2018-08-20T18:36:22.732Z,98478.44
2018-08-20T18:38:53.041Z,98481.75
2018-08-20T18:42:30.020Z,98482.95
2018-08-20T18:44:58.410Z,98487.66
2018-08-20T18:47:26.788Z,98496.22
2018-08-20T18:49:58.715Z,98497.97
2018-08-20T18:52:28.878Z,98502.27
2018-08-20T18:54:58.437Z,98511.04
2018-08-20T18:57:30.890Z,98515.88
2018-08-20T19:00:00.513Z,98511.73
2018-08-20T19:03:03.153Z,98522.47
2018-08-20T19:05:41.973Z,98530.78
2018-08-20T19:08:14.486Z,98529.00
2018-08-20T19:10:42.973Z,98532.93
2018-08-20T19:13:11.368Z,98527.72
2018-08-20T19:15:50.083Z,98532.67
2018-08-20T19:18:20.915Z,98534.44
2018-08-20T19:20:49.517Z,98531.57
2018-08-20T19:23:17.901Z,98533.67
2018-08-20T19:25:46.476Z,98535.53
2018-08-20T19:28:23.592Z,98540.58
2018-08-20T19:30:53.520Z,98534.66
2018-08-20T19:33:23.153Z,98539.55
2018-08-20T19:35:51.998Z,98536.27
2018-08-20T19:38:20.508Z,98544.67
2018-08-20T19:40:58.235Z,98540.97
2018-08-20T19:43:30.525Z,98540.55
2018-08-20T19:45:59.210Z,98542.59
2018-08-20T19:48:27.599Z,98538.73
2018-08-20T19:50:56.030Z,98535.22
2018-08-20T19:53:24.949Z,98540.56
2018-08-20T19:55:53.742Z,98544.08
2018-08-20T19:58:31.201Z,98540.38
2018-08-20T20:01:12.309Z,98537.86
2018-08-20T20:03:43.818Z,98536.85
2018-08-20T20:06:12.697Z,98539.80
2018-08-20T20:08:41.326Z,98540.83
2018-08-20T20:11:14.869Z,98538.55
2018-08-20T20:13:43.485Z,98544.66
2018-08-20T20:16:11.850Z,98552.23
2018-08-20T20:18:40.168Z,98552.55
2018-08-20T20:21:08.548Z,98550.94
2018-08-20T20:23:36.918Z,98550.76
2018-08-20T20:26:05.357Z,98555.84
2018-08-20T20:28:33.689Z,98561.23
2018-08-20T20:31:02.170Z,98562.45
2018-08-20T20:33:30.954Z,98561.60
2018-08-20T20:35:59.311Z,98561.98
2018-08-20T20:38:27.919Z,98571.11
2018-08-20T20:40:56.188Z,98569.61
2018-08-20T20:43:34.680Z,98568.58
2018-08-20T20:46:03.163Z,98571.97
2018-08-20T20:48:31.844Z,98580.06
2018-08-20T20:51:00.453Z,98580.08
2018-08-20T20:53:28.850Z,98582.28
2018-08-20T20:55:57.649Z,98586.34
2018-08-20T20:58:31.289Z,98592.20
2018-08-20T21:01:00.777Z,98590.52
2018-08-20T21:03:45.839Z,98591.69
2018-08-20T21:06:14.414Z,98591.20
2018-08-20T21:08:47.374Z,98596.11
2018-08-20T21:11:16.684Z,98597.80
2018-08-20T21:13:45.480Z,98594.09
2018-08-20T21:16:15.061Z,98601.19
2018-08-20T21:18:45.844Z,98605.38
2018-08-20T21:21:15.543Z,98608.41
2018-08-20T21:23:43.936Z,98611.91
2018-08-20T21:26:12.343Z,98606.88
2018-08-20T21:28:45.348Z,98607.53
2018-08-20T21:31:14.758Z,98603.82
2018-08-20T21:33:43.744Z,98603.30
2018-08-20T21:36:12.861Z,98605.67
2018-08-20T21:38:41.370Z,98608.36
2018-08-20T21:41:09.796Z,98614.39
2018-08-20T21:43:43.413Z,98611.55
2018-08-20T21:46:12.617Z,98614.89
2018-08-20T21:48:41.326Z,98612.66
2018-08-20T21:51:26.674Z,98612.80
2018-08-20T21:53:55.016Z,98615.31
2018-08-20T21:56:23.437Z,98610.23
2018-08-20T21:58:51.810Z,98610.36
2018-08-20T22:01:20.255Z,98617.41
2018-08-20T22:03:48.585Z,98626.22
2018-08-20T22:06:17.001Z,98617.30
2018-08-20T22:08:45.430Z,98620.33
2018-08-20T22:11:14.601Z,98615.63
2018-08-20T22:13:43.361Z,98616.61
2018-08-20T22:16:23.271Z,98613.18
2018-08-20T22:18:56.271Z,98619.41
2018-08-20T22:21:25.287Z,98623.64
2018-08-20T22:23:58.199Z,98630.20
2018-08-20T22:26:26.674Z,98628.59
2018-08-20T22:28:55.035Z,98635.45
2018-08-20T22:31:23.426Z,98632.02
2018-08-20T22:33:57.836Z,98651.67
2018-08-20T22:36:26.985Z,98648.95
2018-08-20T22:38:57.535Z,98656.27
2018-08-20T22:41:26.963Z,98659.84
2018-08-20T22:43:55.333Z,98659.29
2018-08-20T22:46:24.399Z,98663.75
2018-08-20T22:48:54.313Z,98661.52
2018-08-20T22:51:24.438Z,98662.48
2018-08-20T22:53:53.946Z,98658.30
2018-08-20T22:56:38.988Z,98666.16
2018-08-20T22:59:09.036Z,98665.46
2018-08-20T23:01:37.702Z,98662.77
2018-08-20T23:04:06.415Z,98668.24
2018-08-20T23:06:34.795Z,98670.72
2018-08-20T23:09:19.329Z,98674.11
2018-08-20T23:11:47.689Z,98672.60
2018-08-20T23:14:16.245Z,98673.78
2018-08-20T23:16:45.183Z,98679.06
2018-08-20T23:19:13.581Z,98679.95
2018-08-20T23:21:43.061Z,98675.95
2018-08-20T23:24:12.292Z,98676.89
2018-08-20T23:26:40.722Z,98676.36
2018-08-20T23:31:59.947Z,98671.73
2018-08-20T23:42:59.905Z,98664.77
2018-08-20T23:48:18.856Z,98658.08
2018-08-20T23:50:55.902Z,98655.52
2018-08-20T23:53:24.277Z,98665.00
2018-08-20T23:55:52.665Z,98664.46
2018-08-20T23:58:21.782Z,98663.27
